sensor_id;sensor_type;location;lat;lon;timestamp;P1;durP1;ratioP1;P2;durP2;ratioP2
21432;SDS011;18592;49.708;10.900;2022-07-10T00:01:44;3.40;;;3.10;;
21432;SDS011;18592;49.708;10.900;2022-07-10T00:03:46;3.38;;;2.80;;
21432;SDS011;18592;49.708;10.900;2022-07-10T00:05:47;3.03;;;2.78;;
21432;SDS011;18592;49.708;10.900;2022-07-10T00:07:50;3.33;;;3.03;;
21432;SDS011;18592;49.708;10.900;2022-07-10T00:09:53;3.30;;;3.00;;
21432;SDS011;18592;49.708;10.900;2022-07-10T00:11:55;3.42;;;3.13;;
21432;SDS011;18592;49.708;10.900;2022-07-10T00:13:56;3.75;;;2.85;;
21432;SDS011;18592;49.708;10.900;2022-07-10T00:15:58;4.70;;;3.25;;
21432;SDS011;18592;49.708;10.900;2022-07-10T00:18:00;4.22;;;2.75;;
21432;SDS011;18592;49.708;10.900;2022-07-10T00:20:02;3.45;;;3.15;;
21432;SDS011;18592;49.708;10.900;2022-07-10T00:22:04;3.72;;;3.15;;
21432;SDS011;18592;49.708;10.900;2022-07-10T00:24:06;3.05;;;2.75;;
21432;SDS011;18592;49.708;10.900;2022-07-10T00:26:08;3.25;;;2.72;;
21432;SDS011;18592;49.708;10.900;2022-07-10T00:28:10;3.75;;;2.83;;
21432;SDS011;18592;49.708;10.900;2022-07-10T00:30:12;3.75;;;2.63;;
21432;SDS011;18592;49.708;10.900;2022-07-10T00:32:15;3.15;;;2.65;;
21432;SDS011;18592;49.708;10.900;2022-07-10T00:34:16;2.95;;;2.65;;
21432;SDS011;18592;49.708;10.900;2022-07-10T00:36:18;3.08;;;2.67;;
21432;SDS011;18592;49.708;10.900;2022-07-10T00:38:20;3.00;;;2.47;;
21432;SDS011;18592;49.708;10.900;2022-07-10T00:40:22;3.83;;;2.60;;
21432;SDS011;18592;49.708;10.900;2022-07-10T00:42:23;3.30;;;2.85;;
21432;SDS011;18592;49.708;10.900;2022-07-10T00:44:25;2.67;;;2.42;;
21432;SDS011;18592;49.708;10.900;2022-07-10T00:46:27;3.25;;;2.80;;
21432;SDS011;18592;49.708;10.900;2022-07-10T00:48:30;3.13;;;2.65;;
21432;SDS011;18592;49.708;10.900;2022-07-10T00:50:32;3.92;;;3.47;;
21432;SDS011;18592;49.708;10.900;2022-07-10T00:52:35;3.38;;;2.63;;
21432;SDS011;18592;49.708;10.900;2022-07-10T00:54:42;3.00;;;2.70;;
21432;SDS011;18592;49.708;10.900;2022-07-10T00:56:45;3.20;;;2.90;;
21432;SDS011;18592;49.708;10.900;2022-07-10T00:58:49;2.75;;;2.50;;
21432;SDS011;18592;49.708;10.900;2022-07-10T01:00:55;3.20;;;2.83;;
21432;SDS011;18592;49.708;10.900;2022-07-10T01:02:57;3.78;;;2.95;;
21432;SDS011;18592;49.708;10.900;2022-07-10T01:04:58;3.75;;;3.17;;
21432;SDS011;18592;49.708;10.900;2022-07-10T01:07:02;3.55;;;2.92;;
21432;SDS011;18592;49.708;10.900;2022-07-10T01:09:04;3.05;;;2.80;;
21432;SDS011;18592;49.708;10.900;2022-07-10T01:11:05;2.53;;;2.33;;
21432;SDS011;18592;49.708;10.900;2022-07-10T01:13:08;2.92;;;2.08;;
21432;SDS011;18592;49.708;10.900;2022-07-10T01:15:10;3.05;;;1.80;;
21432;SDS011;18592;49.708;10.900;2022-07-10T01:17:12;2.47;;;2.05;;
21432;SDS011;18592;49.708;10.900;2022-07-10T01:19:15;2.80;;;2.15;;
21432;SDS011;18592;49.708;10.900;2022-07-10T01:21:27;2.38;;;1.60;;
21432;SDS011;18592;49.708;10.900;2022-07-10T01:23:30;2.72;;;2.20;;
21432;SDS011;18592;49.708;10.900;2022-07-10T01:25:31;1.90;;;1.70;;
21432;SDS011;18592;49.708;10.900;2022-07-10T01:27:33;1.95;;;1.85;;
21432;SDS011;18592;49.708;10.900;2022-07-10T01:29:35;2.03;;;1.83;;
21432;SDS011;18592;49.708;10.900;2022-07-10T01:31:37;2.15;;;1.92;;
21432;SDS011;18592;49.708;10.900;2022-07-10T01:33:40;2.03;;;1.75;;
21432;SDS011;18592;49.708;10.900;2022-07-10T01:35:42;3.83;;;1.80;;
21432;SDS011;18592;49.708;10.900;2022-07-10T01:37:44;3.00;;;1.77;;
21432;SDS011;18592;49.708;10.900;2022-07-10T01:39:46;2.88;;;1.63;;
21432;SDS011;18592;49.708;10.900;2022-07-10T01:41:48;2.95;;;2.13;;
21432;SDS011;18592;49.708;10.900;2022-07-10T01:43:50;1.98;;;1.63;;
21432;SDS011;18592;49.708;10.900;2022-07-10T01:45:52;1.92;;;1.60;;
21432;SDS011;18592;49.708;10.900;2022-07-10T01:47:54;3.40;;;1.98;;
21432;SDS011;18592;49.708;10.900;2022-07-10T01:49:56;3.35;;;1.80;;
21432;SDS011;18592;49.708;10.900;2022-07-10T01:51:57;3.20;;;1.73;;
21432;SDS011;18592;49.708;10.900;2022-07-10T01:53:59;2.75;;;2.00;;
21432;SDS011;18592;49.708;10.900;2022-07-10T01:56:02;1.70;;;1.60;;
21432;SDS011;18592;49.708;10.900;2022-07-10T01:58:06;3.03;;;1.80;;
21432;SDS011;18592;49.708;10.900;2022-07-10T02:00:07;3.85;;;1.80;;
21432;SDS011;18592;49.708;10.900;2022-07-10T02:02:13;3.92;;;1.75;;
21432;SDS011;18592;49.708;10.900;2022-07-10T02:04:15;2.38;;;1.42;;
21432;SDS011;18592;49.708;10.900;2022-07-10T02:06:35;3.92;;;1.70;;
21432;SDS011;18592;49.708;10.900;2022-07-10T02:08:37;2.03;;;1.60;;
21432;SDS011;18592;49.708;10.900;2022-07-10T02:10:40;1.67;;;1.40;;
21432;SDS011;18592;49.708;10.900;2022-07-10T02:12:41;5.63;;;1.58;;
21432;SDS011;18592;49.708;10.900;2022-07-10T02:14:43;2.05;;;1.73;;
21432;SDS011;18592;49.708;10.900;2022-07-10T02:16:44;3.17;;;1.58;;
21432;SDS011;18592;49.708;10.900;2022-07-10T02:18:47;1.98;;;1.48;;
21432;SDS011;18592;49.708;10.900;2022-07-10T02:20:49;2.78;;;1.60;;
21432;SDS011;18592;49.708;10.900;2022-07-10T02:22:52;1.77;;;1.33;;
21432;SDS011;18592;49.708;10.900;2022-07-10T02:24:53;2.30;;;1.55;;
21432;SDS011;18592;49.708;10.900;2022-07-10T02:26:55;2.95;;;1.73;;
21432;SDS011;18592;49.708;10.900;2022-07-10T02:28:58;1.63;;;1.17;;
21432;SDS011;18592;49.708;10.900;2022-07-10T02:30:59;1.98;;;1.67;;
21432;SDS011;18592;49.708;10.900;2022-07-10T02:33:01;2.08;;;1.23;;
21432;SDS011;18592;49.708;10.900;2022-07-10T02:35:03;1.73;;;1.20;;
21432;SDS011;18592;49.708;10.900;2022-07-10T02:37:05;2.20;;;1.10;;
21432;SDS011;18592;49.708;10.900;2022-07-10T02:39:08;1.10;;;1.00;;
21432;SDS011;18592;49.708;10.900;2022-07-10T02:41:10;2.25;;;1.23;;
21432;SDS011;18592;49.708;10.900;2022-07-10T02:43:11;1.92;;;0.98;;
21432;SDS011;18592;49.708;10.900;2022-07-10T02:45:13;3.28;;;1.33;;
21432;SDS011;18592;49.708;10.900;2022-07-10T02:47:15;1.88;;;1.08;;
21432;SDS011;18592;49.708;10.900;2022-07-10T02:49:17;1.73;;;0.90;;
21432;SDS011;18592;49.708;10.900;2022-07-10T02:51:18;1.92;;;1.10;;
21432;SDS011;18592;49.708;10.900;2022-07-10T02:53:20;2.70;;;1.20;;
21432;SDS011;18592;49.708;10.900;2022-07-10T02:55:21;1.38;;;1.00;;
21432;SDS011;18592;49.708;10.900;2022-07-10T02:57:23;2.13;;;0.90;;
21432;SDS011;18592;49.708;10.900;2022-07-10T02:59:25;2.40;;;0.90;;
21432;SDS011;18592;49.708;10.900;2022-07-10T03:01:27;2.17;;;1.15;;
21432;SDS011;18592;49.708;10.900;2022-07-10T03:03:29;4.07;;;1.35;;
21432;SDS011;18592;49.708;10.900;2022-07-10T03:05:31;2.30;;;0.95;;
21432;SDS011;18592;49.708;10.900;2022-07-10T03:07:32;3.47;;;1.00;;
21432;SDS011;18592;49.708;10.900;2022-07-10T03:09:34;2.15;;;0.80;;
21432;SDS011;18592;49.708;10.900;2022-07-10T03:11:36;2.40;;;1.05;;
21432;SDS011;18592;49.708;10.900;2022-07-10T03:13:37;3.50;;;0.98;;
21432;SDS011;18592;49.708;10.900;2022-07-10T03:15:39;1.67;;;1.00;;
21432;SDS011;18592;49.708;10.900;2022-07-10T03:17:41;2.33;;;1.10;;
21432;SDS011;18592;49.708;10.900;2022-07-10T03:19:42;1.92;;;0.90;;
21432;SDS011;18592;49.708;10.900;2022-07-10T03:21:44;2.55;;;0.80;;
21432;SDS011;18592;49.708;10.900;2022-07-10T03:23:47;2.53;;;1.02;;
21432;SDS011;18592;49.708;10.900;2022-07-10T03:25:48;1.83;;;0.95;;
21432;SDS011;18592;49.708;10.900;2022-07-10T03:27:55;1.98;;;0.98;;
21432;SDS011;18592;49.708;10.900;2022-07-10T03:29:57;1.55;;;0.90;;
21432;SDS011;18592;49.708;10.900;2022-07-10T03:31:59;2.15;;;0.90;;
21432;SDS011;18592;49.708;10.900;2022-07-10T03:34:00;2.78;;;1.02;;
21432;SDS011;18592;49.708;10.900;2022-07-10T03:36:02;2.47;;;0.98;;
21432;SDS011;18592;49.708;10.900;2022-07-10T03:38:04;3.00;;;1.10;;
21432;SDS011;18592;49.708;10.900;2022-07-10T03:40:06;4.47;;;1.10;;
21432;SDS011;18592;49.708;10.900;2022-07-10T03:42:08;0.98;;;0.75;;
21432;SDS011;18592;49.708;10.900;2022-07-10T03:44:10;2.90;;;1.20;;
21432;SDS011;18592;49.708;10.900;2022-07-10T03:46:11;2.20;;;0.90;;
21432;SDS011;18592;49.708;10.900;2022-07-10T03:48:13;2.30;;;0.77;;
21432;SDS011;18592;49.708;10.900;2022-07-10T03:50:14;3.03;;;0.90;;
21432;SDS011;18592;49.708;10.900;2022-07-10T03:52:16;2.95;;;0.80;;
21432;SDS011;18592;49.708;10.900;2022-07-10T03:54:18;3.00;;;0.80;;
21432;SDS011;18592;49.708;10.900;2022-07-10T03:56:20;1.63;;;0.80;;
21432;SDS011;18592;49.708;10.900;2022-07-10T03:58:40;2.90;;;0.90;;
21432;SDS011;18592;49.708;10.900;2022-07-10T04:00:42;1.45;;;0.80;;
21432;SDS011;18592;49.708;10.900;2022-07-10T04:02:44;1.50;;;0.73;;
21432;SDS011;18592;49.708;10.900;2022-07-10T04:04:46;1.42;;;0.80;;
21432;SDS011;18592;49.708;10.900;2022-07-10T04:06:47;1.35;;;0.80;;
21432;SDS011;18592;49.708;10.900;2022-07-10T04:08:49;2.80;;;0.70;;
21432;SDS011;18592;49.708;10.900;2022-07-10T04:10:51;3.95;;;0.80;;
21432;SDS011;18592;49.708;10.900;2022-07-10T04:12:53;2.47;;;0.90;;
21432;SDS011;18592;49.708;10.900;2022-07-10T04:14:55;2.97;;;0.90;;
21432;SDS011;18592;49.708;10.900;2022-07-10T04:16:57;1.40;;;0.90;;
21432;SDS011;18592;49.708;10.900;2022-07-10T04:18:58;2.00;;;0.70;;
21432;SDS011;18592;49.708;10.900;2022-07-10T04:21:00;1.55;;;0.70;;
21432;SDS011;18592;49.708;10.900;2022-07-10T04:23:02;3.28;;;1.20;;
21432;SDS011;18592;49.708;10.900;2022-07-10T04:25:04;1.63;;;0.77;;
21432;SDS011;18592;49.708;10.900;2022-07-10T04:27:06;2.40;;;0.70;;
21432;SDS011;18592;49.708;10.900;2022-07-10T04:29:08;1.67;;;0.90;;
21432;SDS011;18592;49.708;10.900;2022-07-10T04:31:09;2.53;;;0.90;;
21432;SDS011;18592;49.708;10.900;2022-07-10T04:33:11;2.35;;;0.90;;
21432;SDS011;18592;49.708;10.900;2022-07-10T04:35:13;2.40;;;1.00;;
21432;SDS011;18592;49.708;10.900;2022-07-10T04:37:15;2.25;;;0.90;;
21432;SDS011;18592;49.708;10.900;2022-07-10T04:39:17;0.98;;;0.60;;
21432;SDS011;18592;49.708;10.900;2022-07-10T04:41:19;2.35;;;1.08;;
21432;SDS011;18592;49.708;10.900;2022-07-10T04:43:21;2.75;;;1.00;;
21432;SDS011;18592;49.708;10.900;2022-07-10T04:45:22;1.38;;;0.70;;
21432;SDS011;18592;49.708;10.900;2022-07-10T04:47:24;2.53;;;0.65;;
21432;SDS011;18592;49.708;10.900;2022-07-10T04:49:26;2.10;;;0.90;;
21432;SDS011;18592;49.708;10.900;2022-07-10T04:51:28;1.75;;;0.80;;
21432;SDS011;18592;49.708;10.900;2022-07-10T04:53:29;3.03;;;1.25;;
21432;SDS011;18592;49.708;10.900;2022-07-10T04:55:37;1.42;;;0.60;;
21432;SDS011;18592;49.708;10.900;2022-07-10T04:57:38;2.00;;;0.88;;
21432;SDS011;18592;49.708;10.900;2022-07-10T04:59:42;2.65;;;0.73;;
21432;SDS011;18592;49.708;10.900;2022-07-10T05:01:44;1.83;;;0.70;;
21432;SDS011;18592;49.708;10.900;2022-07-10T05:03:46;1.08;;;0.60;;
21432;SDS011;18592;49.708;10.900;2022-07-10T05:05:48;1.13;;;0.60;;
21432;SDS011;18592;49.708;10.900;2022-07-10T05:07:49;1.95;;;0.68;;
21432;SDS011;18592;49.708;10.900;2022-07-10T05:09:51;2.50;;;0.80;;
21432;SDS011;18592;49.708;10.900;2022-07-10T05:11:53;1.65;;;0.70;;
21432;SDS011;18592;49.708;10.900;2022-07-10T05:13:54;4.50;;;1.00;;
21432;SDS011;18592;49.708;10.900;2022-07-10T05:15:57;1.13;;;0.65;;
21432;SDS011;18592;49.708;10.900;2022-07-10T05:17:58;0.82;;;0.60;;
21432;SDS011;18592;49.708;10.900;2022-07-10T05:20:00;1.15;;;0.60;;
21432;SDS011;18592;49.708;10.900;2022-07-10T05:22:02;2.30;;;0.70;;
21432;SDS011;18592;49.708;10.900;2022-07-10T05:24:04;4.13;;;0.70;;
21432;SDS011;18592;49.708;10.900;2022-07-10T05:26:06;1.77;;;0.70;;
21432;SDS011;18592;49.708;10.900;2022-07-10T05:28:07;1.17;;;0.50;;
21432;SDS011;18592;49.708;10.900;2022-07-10T05:30:09;1.52;;;0.57;;
21432;SDS011;18592;49.708;10.900;2022-07-10T05:32:11;1.73;;;0.70;;
21432;SDS011;18592;49.708;10.900;2022-07-10T05:34:17;1.88;;;0.70;;
21432;SDS011;18592;49.708;10.900;2022-07-10T05:36:19;2.80;;;0.98;;
21432;SDS011;18592;49.708;10.900;2022-07-10T05:38:21;1.80;;;0.65;;
21432;SDS011;18592;49.708;10.900;2022-07-10T05:40:23;1.90;;;0.77;;
21432;SDS011;18592;49.708;10.900;2022-07-10T05:42:27;1.55;;;0.80;;
21432;SDS011;18592;49.708;10.900;2022-07-10T05:44:29;2.33;;;0.70;;
21432;SDS011;18592;49.708;10.900;2022-07-10T05:46:30;2.08;;;1.08;;
21432;SDS011;18592;49.708;10.900;2022-07-10T05:48:32;1.23;;;0.75;;
21432;SDS011;18592;49.708;10.900;2022-07-10T05:50:34;2.42;;;0.90;;
21432;SDS011;18592;49.708;10.900;2022-07-10T05:52:36;0.90;;;0.70;;
21432;SDS011;18592;49.708;10.900;2022-07-10T05:54:38;1.90;;;0.65;;
21432;SDS011;18592;49.708;10.900;2022-07-10T05:56:45;1.80;;;0.85;;
21432;SDS011;18592;49.708;10.900;2022-07-10T05:58:47;0.75;;;0.50;;
21432;SDS011;18592;49.708;10.900;2022-07-10T06:00:48;2.15;;;0.60;;
21432;SDS011;18592;49.708;10.900;2022-07-10T06:02:51;1.60;;;0.57;;
21432;SDS011;18592;49.708;10.900;2022-07-10T06:04:53;1.13;;;0.63;;
21432;SDS011;18592;49.708;10.900;2022-07-10T06:06:55;1.08;;;0.55;;
21432;SDS011;18592;49.708;10.900;2022-07-10T06:08:56;2.40;;;0.70;;
21432;SDS011;18592;49.708;10.900;2022-07-10T06:11:00;1.52;;;0.82;;
21432;SDS011;18592;49.708;10.900;2022-07-10T06:13:02;1.80;;;0.70;;
21432;SDS011;18592;49.708;10.900;2022-07-10T06:15:04;2.35;;;0.80;;
21432;SDS011;18592;49.708;10.900;2022-07-10T06:17:06;1.50;;;0.73;;
21432;SDS011;18592;49.708;10.900;2022-07-10T06:19:07;3.28;;;0.82;;
21432;SDS011;18592;49.708;10.900;2022-07-10T06:21:09;1.95;;;0.80;;
21432;SDS011;18592;49.708;10.900;2022-07-10T06:23:13;1.55;;;0.60;;
21432;SDS011;18592;49.708;10.900;2022-07-10T06:25:15;1.40;;;0.80;;
21432;SDS011;18592;49.708;10.900;2022-07-10T06:27:16;4.03;;;0.73;;
21432;SDS011;18592;49.708;10.900;2022-07-10T06:29:18;1.08;;;0.52;;
21432;SDS011;18592;49.708;10.900;2022-07-10T06:31:20;1.33;;;0.73;;
21432;SDS011;18592;49.708;10.900;2022-07-10T06:33:22;1.95;;;0.70;;
21432;SDS011;18592;49.708;10.900;2022-07-10T06:35:26;2.25;;;0.68;;
21432;SDS011;18592;49.708;10.900;2022-07-10T06:37:28;1.58;;;0.65;;
21432;SDS011;18592;49.708;10.900;2022-07-10T06:39:32;0.93;;;0.50;;
21432;SDS011;18592;49.708;10.900;2022-07-10T06:41:36;0.60;;;0.38;;
21432;SDS011;18592;49.708;10.900;2022-07-10T06:43:38;2.30;;;0.60;;
21432;SDS011;18592;49.708;10.900;2022-07-10T06:45:39;0.90;;;0.50;;
21432;SDS011;18592;49.708;10.900;2022-07-10T06:47:42;2.00;;;0.70;;
21432;SDS011;18592;49.708;10.900;2022-07-10T06:50:03;1.40;;;0.60;;
21432;SDS011;18592;49.708;10.900;2022-07-10T06:52:06;1.02;;;0.60;;
21432;SDS011;18592;49.708;10.900;2022-07-10T06:54:12;0.98;;;0.60;;
21432;SDS011;18592;49.708;10.900;2022-07-10T06:56:14;2.30;;;0.70;;
21432;SDS011;18592;49.708;10.900;2022-07-10T06:58:17;1.75;;;0.68;;
21432;SDS011;18592;49.708;10.900;2022-07-10T07:00:19;1.67;;;0.75;;
21432;SDS011;18592;49.708;10.900;2022-07-10T07:02:21;1.48;;;0.50;;
21432;SDS011;18592;49.708;10.900;2022-07-10T07:04:23;2.15;;;0.60;;
21432;SDS011;18592;49.708;10.900;2022-07-10T07:06:25;0.63;;;0.50;;
21432;SDS011;18592;49.708;10.900;2022-07-10T07:08:29;3.58;;;0.70;;
21432;SDS011;18592;49.708;10.900;2022-07-10T07:10:31;1.20;;;0.50;;
21432;SDS011;18592;49.708;10.900;2022-07-10T07:12:32;1.67;;;0.40;;
21432;SDS011;18592;49.708;10.900;2022-07-10T07:14:34;1.75;;;0.63;;
21432;SDS011;18592;49.708;10.900;2022-07-10T07:16:42;1.90;;;0.60;;
21432;SDS011;18592;49.708;10.900;2022-07-10T07:18:46;0.93;;;0.47;;
21432;SDS011;18592;49.708;10.900;2022-07-10T07:20:53;0.82;;;0.50;;
21432;SDS011;18592;49.708;10.900;2022-07-10T07:23:33;1.42;;;0.60;;
21432;SDS011;18592;49.708;10.900;2022-07-10T07:25:35;3.45;;;0.52;;
21432;SDS011;18592;49.708;10.900;2022-07-10T07:27:39;2.05;;;0.40;;
21432;SDS011;18592;49.708;10.900;2022-07-10T07:29:41;1.48;;;0.60;;
21432;SDS011;18592;49.708;10.900;2022-07-10T07:31:43;1.10;;;0.50;;
21432;SDS011;18592;49.708;10.900;2022-07-10T07:33:45;1.35;;;0.45;;
21432;SDS011;18592;49.708;10.900;2022-07-10T07:35:47;1.23;;;0.40;;
21432;SDS011;18592;49.708;10.900;2022-07-10T07:37:49;1.15;;;0.57;;
21432;SDS011;18592;49.708;10.900;2022-07-10T07:39:52;0.82;;;0.45;;
21432;SDS011;18592;49.708;10.900;2022-07-10T07:41:53;1.08;;;0.40;;
21432;SDS011;18592;49.708;10.900;2022-07-10T07:43:55;1.30;;;0.50;;
21432;SDS011;18592;49.708;10.900;2022-07-10T07:45:56;1.70;;;0.40;;
21432;SDS011;18592;49.708;10.900;2022-07-10T07:47:58;0.98;;;0.50;;
21432;SDS011;18592;49.708;10.900;2022-07-10T07:50:01;0.50;;;0.45;;
21432;SDS011;18592;49.708;10.900;2022-07-10T07:52:04;1.42;;;0.50;;
21432;SDS011;18592;49.708;10.900;2022-07-10T07:54:06;1.15;;;0.40;;
21432;SDS011;18592;49.708;10.900;2022-07-10T07:56:08;1.35;;;0.50;;
21432;SDS011;18592;49.708;10.900;2022-07-10T07:58:09;1.00;;;0.50;;
21432;SDS011;18592;49.708;10.900;2022-07-10T08:00:11;1.15;;;0.43;;
21432;SDS011;18592;49.708;10.900;2022-07-10T08:02:14;0.85;;;0.50;;
21432;SDS011;18592;49.708;10.900;2022-07-10T08:04:16;1.83;;;0.43;;
21432;SDS011;18592;49.708;10.900;2022-07-10T08:06:17;0.70;;;0.50;;
21432;SDS011;18592;49.708;10.900;2022-07-10T08:08:19;1.10;;;0.40;;
21432;SDS011;18592;49.708;10.900;2022-07-10T08:10:22;2.83;;;0.47;;
21432;SDS011;18592;49.708;10.900;2022-07-10T08:12:24;1.17;;;0.47;;
21432;SDS011;18592;49.708;10.900;2022-07-10T08:14:26;0.30;;;0.30;;
21432;SDS011;18592;49.708;10.900;2022-07-10T08:16:28;1.30;;;0.30;;
21432;SDS011;18592;49.708;10.900;2022-07-10T08:18:29;0.35;;;0.35;;
21432;SDS011;18592;49.708;10.900;2022-07-10T08:20:31;0.80;;;0.30;;
21432;SDS011;18592;49.708;10.900;2022-07-10T08:22:33;0.52;;;0.40;;
21432;SDS011;18592;49.708;10.900;2022-07-10T08:24:35;0.38;;;0.30;;
21432;SDS011;18592;49.708;10.900;2022-07-10T08:26:37;0.73;;;0.40;;
21432;SDS011;18592;49.708;10.900;2022-07-10T08:28:38;0.98;;;0.45;;
21432;SDS011;18592;49.708;10.900;2022-07-10T08:30:41;0.75;;;0.40;;
21432;SDS011;18592;49.708;10.900;2022-07-10T08:32:44;1.13;;;0.50;;
21432;SDS011;18592;49.708;10.900;2022-07-10T08:34:46;1.55;;;0.50;;
21432;SDS011;18592;49.708;10.900;2022-07-10T08:36:49;0.63;;;0.30;;
21432;SDS011;18592;49.708;10.900;2022-07-10T08:38:52;0.60;;;0.40;;
21432;SDS011;18592;49.708;10.900;2022-07-10T08:40:57;1.23;;;0.40;;
21432;SDS011;18592;49.708;10.900;2022-07-10T08:43:03;0.55;;;0.50;;
21432;SDS011;18592;49.708;10.900;2022-07-10T08:45:06;0.95;;;0.47;;
21432;SDS011;18592;49.708;10.900;2022-07-10T08:47:08;1.08;;;0.40;;
21432;SDS011;18592;49.708;10.900;2022-07-10T08:49:12;3.72;;;0.70;;
21432;SDS011;18592;49.708;10.900;2022-07-10T08:51:36;3.42;;;0.60;;
21432;SDS011;18592;49.708;10.900;2022-07-10T08:53:42;1.23;;;0.65;;
21432;SDS011;18592;49.708;10.900;2022-07-10T08:55:45;1.35;;;0.68;;
21432;SDS011;18592;49.708;10.900;2022-07-10T08:57:47;1.65;;;0.80;;
21432;SDS011;18592;49.708;10.900;2022-07-10T08:59:51;1.25;;;0.88;;
21432;SDS011;18592;49.708;10.900;2022-07-10T09:01:55;1.02;;;0.60;;
21432;SDS011;18592;49.708;10.900;2022-07-10T09:03:57;1.45;;;0.60;;
21432;SDS011;18592;49.708;10.900;2022-07-10T09:06:00;1.70;;;0.70;;
21432;SDS011;18592;49.708;10.900;2022-07-10T09:08:02;1.23;;;0.50;;
21432;SDS011;18592;49.708;10.900;2022-07-10T09:10:05;1.58;;;0.50;;
21432;SDS011;18592;49.708;10.900;2022-07-10T09:12:08;0.90;;;0.45;;
21432;SDS011;18592;49.708;10.900;2022-07-10T09:14:11;1.95;;;0.50;;
21432;SDS011;18592;49.708;10.900;2022-07-10T09:16:34;1.08;;;0.55;;
21432;SDS011;18592;49.708;10.900;2022-07-10T09:18:37;2.03;;;0.77;;
21432;SDS011;18592;49.708;10.900;2022-07-10T09:20:39;1.73;;;0.43;;
21432;SDS011;18592;49.708;10.900;2022-07-10T09:22:45;2.05;;;0.85;;
21432;SDS011;18592;49.708;10.900;2022-07-10T09:24:47;1.13;;;0.80;;
21432;SDS011;18592;49.708;10.900;2022-07-10T09:29:09;1.45;;;0.98;;
21432;SDS011;18592;49.708;10.900;2022-07-10T09:31:12;1.77;;;0.93;;
21432;SDS011;18592;49.708;10.900;2022-07-10T09:33:23;1.55;;;0.90;;
21432;SDS011;18592;49.708;10.900;2022-07-10T09:35:29;1.80;;;0.80;;
21432;SDS011;18592;49.708;10.900;2022-07-10T09:37:49;1.95;;;0.65;;
21432;SDS011;18592;49.708;10.900;2022-07-10T09:39:53;1.30;;;0.70;;
21432;SDS011;18592;49.708;10.900;2022-07-10T09:41:59;0.68;;;0.50;;
21432;SDS011;18592;49.708;10.900;2022-07-10T09:44:02;1.77;;;0.68;;
21432;SDS011;18592;49.708;10.900;2022-07-10T09:46:07;1.85;;;0.70;;
21432;SDS011;18592;49.708;10.900;2022-07-10T09:48:09;1.30;;;0.65;;
21432;SDS011;18592;49.708;10.900;2022-07-10T09:50:25;1.25;;;0.80;;
21432;SDS011;18592;49.708;10.900;2022-07-10T09:52:27;1.67;;;0.60;;
21432;SDS011;18592;49.708;10.900;2022-07-10T09:54:29;1.88;;;0.60;;
21432;SDS011;18592;49.708;10.900;2022-07-10T09:56:32;1.60;;;0.70;;
21432;SDS011;18592;49.708;10.900;2022-07-10T09:58:45;2.30;;;0.65;;
21432;SDS011;18592;49.708;10.900;2022-07-10T10:00:51;1.27;;;0.70;;
21432;SDS011;18592;49.708;10.900;2022-07-10T10:02:56;0.68;;;0.63;;
21432;SDS011;18592;49.708;10.900;2022-07-10T10:05:00;1.05;;;0.70;;
21432;SDS011;18592;49.708;10.900;2022-07-10T10:07:02;1.23;;;0.65;;
21432;SDS011;18592;49.708;10.900;2022-07-10T10:11:14;1.98;;;0.75;;
21432;SDS011;18592;49.708;10.900;2022-07-10T10:13:18;1.33;;;0.57;;
21432;SDS011;18592;49.708;10.900;2022-07-10T10:15:22;2.80;;;0.90;;
21432;SDS011;18592;49.708;10.900;2022-07-10T10:17:25;3.63;;;1.17;;
21432;SDS011;18592;49.708;10.900;2022-07-10T10:19:28;4.22;;;1.50;;
21432;SDS011;18592;49.708;10.900;2022-07-10T10:21:52;4.10;;;1.60;;
21432;SDS011;18592;49.708;10.900;2022-07-10T10:23:55;3.83;;;1.63;;
21432;SDS011;18592;49.708;10.900;2022-07-10T10:25:57;6.05;;;2.03;;
21432;SDS011;18592;49.708;10.900;2022-07-10T10:28:00;4.55;;;1.90;;
21432;SDS011;18592;49.708;10.900;2022-07-10T10:30:04;5.82;;;2.40;;
21432;SDS011;18592;49.708;10.900;2022-07-10T10:32:06;6.78;;;2.55;;
21432;SDS011;18592;49.708;10.900;2022-07-10T10:34:09;6.78;;;2.47;;
21432;SDS011;18592;49.708;10.900;2022-07-10T10:36:11;5.07;;;2.40;;
21432;SDS011;18592;49.708;10.900;2022-07-10T10:38:15;4.97;;;2.05;;
21432;SDS011;18592;49.708;10.900;2022-07-10T10:40:32;6.88;;;2.38;;
21432;SDS011;18592;49.708;10.900;2022-07-10T10:42:38;6.20;;;2.33;;
21432;SDS011;18592;49.708;10.900;2022-07-10T10:44:41;6.45;;;2.75;;
21432;SDS011;18592;49.708;10.900;2022-07-10T10:49:07;4.10;;;2.20;;
21432;SDS011;18592;49.708;10.900;2022-07-10T10:51:10;6.55;;;2.72;;
21432;SDS011;18592;49.708;10.900;2022-07-10T10:53:12;4.97;;;2.35;;
21432;SDS011;18592;49.708;10.900;2022-07-10T10:55:20;5.68;;;2.80;;
21432;SDS011;18592;49.708;10.900;2022-07-10T10:57:22;5.78;;;2.47;;
21432;SDS011;18592;49.708;10.900;2022-07-10T10:59:47;10.57;;;4.03;;
21432;SDS011;18592;49.708;10.900;2022-07-10T11:04:27;12.30;;;6.22;;
21432;SDS011;18592;49.708;10.900;2022-07-10T11:06:41;16.48;;;6.82;;
21432;SDS011;18592;49.708;10.900;2022-07-10T11:08:44;10.40;;;5.50;;
21432;SDS011;18592;49.708;10.900;2022-07-10T11:10:45;10.38;;;5.28;;
21432;SDS011;18592;49.708;10.900;2022-07-10T11:13:09;8.20;;;3.92;;
21432;SDS011;18592;49.708;10.900;2022-07-10T11:15:13;7.80;;;4.03;;
21432;SDS011;18592;49.708;10.900;2022-07-10T11:17:16;8.27;;;3.88;;
21432;SDS011;18592;49.708;10.900;2022-07-10T11:19:19;10.00;;;4.07;;
21432;SDS011;18592;49.708;10.900;2022-07-10T11:21:23;9.82;;;4.20;;
21432;SDS011;18592;49.708;10.900;2022-07-10T11:23:30;6.93;;;3.70;;
21432;SDS011;18592;49.708;10.900;2022-07-10T11:25:59;6.63;;;3.20;;
21432;SDS011;18592;49.708;10.900;2022-07-10T11:28:21;4.93;;;2.67;;
21432;SDS011;18592;49.708;10.900;2022-07-10T11:30:26;6.25;;;2.78;;
21432;SDS011;18592;49.708;10.900;2022-07-10T11:32:28;4.38;;;2.53;;
21432;SDS011;18592;49.708;10.900;2022-07-10T11:34:36;4.47;;;2.10;;
21432;SDS011;18592;49.708;10.900;2022-07-10T11:36:38;3.72;;;1.88;;
21432;SDS011;18592;49.708;10.900;2022-07-10T11:38:41;5.32;;;1.70;;
21432;SDS011;18592;49.708;10.900;2022-07-10T11:40:44;3.42;;;1.30;;
21432;SDS011;18592;49.708;10.900;2022-07-10T11:42:49;3.20;;;1.63;;
21432;SDS011;18592;49.708;10.900;2022-07-10T11:44:52;4.13;;;1.92;;
21432;SDS011;18592;49.708;10.900;2022-07-10T11:46:53;4.00;;;1.27;;
21432;SDS011;18592;49.708;10.900;2022-07-10T11:48:57;3.33;;;1.08;;
21432;SDS011;18592;49.708;10.900;2022-07-10T11:51:00;2.92;;;1.25;;
21432;SDS011;18592;49.708;10.900;2022-07-10T11:53:02;1.33;;;0.82;;
21432;SDS011;18592;49.708;10.900;2022-07-10T11:55:17;2.70;;;0.93;;
21432;SDS011;18592;49.708;10.900;2022-07-10T11:57:20;0.73;;;0.52;;
21432;SDS011;18592;49.708;10.900;2022-07-10T11:59:23;3.22;;;0.80;;
21432;SDS011;18592;49.708;10.900;2022-07-10T12:01:27;1.77;;;0.70;;
21432;SDS011;18592;49.708;10.900;2022-07-10T12:03:34;1.95;;;0.88;;
21432;SDS011;18592;49.708;10.900;2022-07-10T12:05:39;3.53;;;1.40;;
21432;SDS011;18592;49.708;10.900;2022-07-10T12:07:41;3.25;;;1.30;;
21432;SDS011;18592;49.708;10.900;2022-07-10T12:09:43;3.17;;;1.00;;
21432;SDS011;18592;49.708;10.900;2022-07-10T12:12:04;2.55;;;1.35;;
21432;SDS011;18592;49.708;10.900;2022-07-10T12:14:08;3.22;;;1.50;;
21432;SDS011;18592;49.708;10.900;2022-07-10T12:16:12;2.85;;;1.52;;
21432;SDS011;18592;49.708;10.900;2022-07-10T12:18:15;2.85;;;1.20;;
21432;SDS011;18592;49.708;10.900;2022-07-10T12:20:23;2.42;;;1.33;;
21432;SDS011;18592;49.708;10.900;2022-07-10T12:22:24;3.35;;;1.25;;